Time;durP1;ratioP1;P1;durP2;ratioP2;P2;SDS_P1;SDS_P2;PMS_P1;PMS_P2;Temp;Humidity;BMP_temperature;BMP_pressure;BME280_temperature;BME280_humidity;BME280_pressure;Samples;Min_cycle;Max_cycle;Signal;HPM_P1;HPM_P2
2021/12/13 00:00:40;;;;;;;4.05;3.30;;;4.70;99.90;;;;;;5028147;28;20604;-69
2021/12/13 00:03:15;;;;;;;4.97;3.30;;;4.70;99.90;;;;;;5027722;28;20221;-70
2021/12/13 00:05:47;;;;;;;3.08;2.78;;;4.70;99.90;;;;;;5028430;28;20209;-68
2021/12/13 00:08:18;;;;;;;3.83;3.45;;;4.70;99.90;;;;;;5028229;28;20206;-70
2021/12/13 00:10:59;;;;;;;3.60;3.30;;;4.70;99.90;;;;;;5025146;28;20199;-70
2021/12/13 00:13:38;;;;;;;4.80;3.25;;;4.70;99.90;;;;;;5025709;28;20579;-69
2021/12/13 00:16:08;;;;;;;4.88;3.45;;;4.70;99.90;;;;;;5024165;28;20248;-70
2021/12/13 00:18:38;;;;;;;4.28;3.33;;;4.70;99.90;;;;;;5017170;28;20200;-69
2021/12/13 00:21:12;;;;;;;4.53;3.65;;;4.70;99.90;;;;;;5008792;28;20198;-70
2021/12/13 00:23:46;;;;;;;3.95;3.30;;;4.80;99.90;;;;;;5009742;28;20202;-70
2021/12/13 00:26:22;;;;;;;5.07;3.38;;;4.80;99.90;;;;;;5008538;28;20579;-71
2021/12/13 00:28:49;;;;;;;4.38;3.28;;;4.80;99.90;;;;;;5009215;28;20205;-70
2021/12/13 00:31:25;;;;;;;3.42;2.80;;;4.80;99.90;;;;;;5008801;28;20237;-71
2021/12/13 00:34:10;;;;;;;7.57;3.03;;;4.80;99.90;;;;;;5008676;28;20752;-71
2021/12/13 00:36:43;;;;;;;4.53;3.33;;;4.90;99.90;;;;;;5009219;28;20203;-71
2021/12/13 00:39:15;;;;;;;6.72;3.67;;;4.80;99.90;;;;;;5009120;28;20209;-71
2021/12/13 00:41:44;;;;;;;4.18;3.35;;;4.90;99.90;;;;;;5011377;28;20222;-68
2021/12/13 00:44:17;;;;;;;3.65;2.95;;;4.80;99.90;;;;;;5011138;28;20747;-69
2021/12/13 00:46:46;;;;;;;4.13;3.15;;;4.80;99.90;;;;;;5011947;28;20198;-68
2021/12/13 00:49:16;;;;;;;5.07;3.03;;;4.80;99.90;;;;;;5011431;28;20206;-68
2021/12/13 00:51:47;;;;;;;3.63;2.90;;;4.80;99.90;;;;;;5011104;28;20230;-69
2021/12/13 00:54:19;;;;;;;5.93;3.85;;;4.80;99.90;;;;;;5011403;28;20665;-69
2021/12/13 00:57:13;;;;;;;4.40;3.22;;;4.80;99.90;;;;;;5011567;28;20214;-69
2021/12/13 00:59:42;;;;;;;3.28;2.97;;;4.80;99.90;;;;;;5011768;28;20206;-69
2021/12/13 01:02:13;;;;;;;3.75;3.30;;;4.80;99.90;;;;;;5010622;28;20233;-68
2021/12/13 01:04:57;;;;;;;5.43;3.70;;;4.80;99.90;;;;;;5011435;28;20241;-68
2021/12/13 01:08:09;;;;;;;9.98;3.35;;;4.80;99.90;;;;;;5010674;28;20207;-70
2021/12/13 01:11:35;;;;;;;4.07;3.10;;;4.80;99.90;;;;;;5011370;28;20202;-68
2021/12/13 01:14:17;;;;;;;3.50;2.92;;;4.80;99.90;;;;;;5010939;28;20209;-69
2021/12/13 01:16:56;;;;;;;5.20;3.22;;;4.80;99.90;;;;;;5011152;28;20622;-68
2021/12/13 01:19:30;;;;;;;4.65;3.28;;;4.90;99.90;;;;;;5011088;28;20209;-69
2021/12/13 01:22:23;;;;;;;4.60;3.60;;;4.90;99.90;;;;;;5011028;28;20309;-69
2021/12/13 01:25:16;;;;;;;3.90;3.60;;;4.90;99.90;;;;;;5011264;28;20202;-69
2021/12/13 01:27:48;;;;;;;4.05;3.47;;;4.90;99.90;;;;;;5011182;28;20357;-69
2021/12/13 01:30:19;;;;;;;6.05;3.50;;;4.90;99.90;;;;;;5010799;28;20207;-68
2021/12/13 01:32:49;;;;;;;4.82;3.50;;;4.90;99.90;;;;;;5010539;28;20597;-69
2021/12/13 01:35:23;;;;;;;5.40;3.58;;;4.90;99.90;;;;;;5010403;28;20218;-68
2021/12/13 01:37:53;;;;;;;3.78;3.03;;;4.90;99.90;;;;;;5010786;28;20720;-69
2021/12/13 01:40:23;;;;;;;4.60;3.53;;;4.80;99.90;;;;;;5010899;28;20210;-69
2021/12/13 01:42:59;;;;;;;4.10;3.65;;;4.90;99.90;;;;;;5010326;28;20223;-69
2021/12/13 01:45:28;;;;;;;4.35;3.60;;;4.80;99.90;;;;;;5010712;28;20254;-69
2021/12/13 01:47:56;;;;;;;4.57;3.22;;;4.80;99.90;;;;;;5010170;28;20217;-69
2021/12/13 01:50:29;;;;;;;4.78;3.60;;;4.80;99.90;;;;;;5009621;28;20206;-69
2021/12/13 01:52:57;;;;;;;4.90;3.38;;;4.80;99.90;;;;;;5009530;28;20329;-69
2021/12/13 01:55:30;;;;;;;4.18;3.00;;;4.80;99.90;;;;;;5010254;28;20206;-68
2021/12/13 01:58:19;;;;;;;5.38;3.70;;;4.80;99.90;;;;;;5010374;28;20202;-68
2021/12/13 02:03:41;;;;;;;3.47;3.17;;;4.70;99.90;;;;;;5041519;22;20236;-66
2021/12/13 02:06:08;;;;;;;4.32;3.47;;;4.70;99.90;;;;;;5043257;28;20208;-66
2021/12/13 02:08:35;;;;;;;8.82;4.13;;;4.70;99.90;;;;;;5051949;28;20570;-64
2021/12/13 02:11:02;;;;;;;3.35;3.05;;;4.70;99.90;;;;;;5051084;28;20208;-65
2021/12/13 02:13:38;;;;;;;5.03;3.60;;;4.70;99.90;;;;;;5051912;28;20220;-64
2021/12/13 02:18:53;;;;;;;4.55;3.25;;;4.70;99.90;;;;;;5051756;28;20670;-64
2021/12/13 02:21:27;;;;;;;5.35;3.67;;;4.70;99.90;;;;;;5051056;28;20221;-64
2021/12/13 02:23:59;;;;;;;5.55;3.85;;;4.70;99.90;;;;;;5051900;28;20205;-64
2021/12/13 02:26:28;;;;;;;7.25;4.25;;;4.70;99.90;;;;;;5051570;28;20205;-65
2021/12/13 02:29:06;;;;;;;4.25;3.15;;;4.70;99.90;;;;;;5051844;28;20201;-65
2021/12/13 02:31:37;;;;;;;4.60;3.65;;;4.70;99.90;;;;;;5051090;28;20221;-65
2021/12/13 02:34:07;;;;;;;4.25;3.42;;;4.70;99.90;;;;;;5051442;28;20205;-65
2021/12/13 02:36:38;;;;;;;6.85;4.05;;;4.80;99.90;;;;;;5051628;28;20339;-65
2021/12/13 02:39:10;;;;;;;4.60;3.13;;;4.80;99.90;;;;;;5050911;28;20205;-64
2021/12/13 02:41:39;;;;;;;3.63;3.25;;;4.80;99.90;;;;;;5051108;28;20248;-65
2021/12/13 02:44:11;;;;;;;6.68;3.20;;;4.80;99.90;;;;;;5050924;28;20549;-65
2021/12/13 02:46:39;;;;;;;6.07;3.85;;;4.80;99.90;;;;;;5051511;28;20690;-65
2021/12/13 02:49:10;;;;;;;3.95;3.35;;;4.80;99.90;;;;;;5051118;28;20660;-64
2021/12/13 02:51:40;;;;;;;6.63;4.50;;;4.80;99.90;;;;;;5050265;28;20221;-65
2021/12/13 02:54:11;;;;;;;5.85;4.28;;;4.80;99.90;;;;;;5051188;28;20205;-65
2021/12/13 02:56:43;;;;;;;4.40;3.85;;;4.80;99.90;;;;;;5051014;28;20563;-64
2021/12/13 02:59:11;;;;;;;5.13;4.07;;;4.90;99.90;;;;;;5051248;28;20201;-64
2021/12/13 03:01:41;;;;;;;5.18;3.53;;;4.90;99.90;;;;;;5072350;22;20232;-89
2021/12/13 03:04:11;;;;;;;7.93;3.83;;;4.90;99.90;;;;;;5077629;28;20715;-89
2021/12/13 03:06:45;;;;;;;7.35;4.38;;;4.90;99.90;;;;;;5080684;28;20204;-89
2021/12/13 03:09:16;;;;;;;4.50;4.03;;;4.90;99.90;;;;;;5080313;28;20204;-90
2021/12/13 03:11:45;;;;;;;5.05;3.58;;;4.90;99.90;;;;;;5080127;28;20200;-89
2021/12/13 03:14:14;;;;;;;5.25;3.90;;;4.90;99.90;;;;;;5090882;28;20232;-89
2021/12/13 03:16:45;;;;;;;5.00;4.00;;;4.90;99.90;;;;;;5085283;28;20278;-89
2021/12/13 03:19:24;;;;;;;4.63;4.07;;;4.90;99.90;;;;;;5096480;28;20189;-91
2021/12/13 03:22:17;;;;;;;4.25;3.85;;;4.90;99.90;;;;;;5097677;28;20203;-92
2021/12/13 03:25:03;;;;;;;5.18;4.15;;;4.90;99.90;;;;;;5097392;28;20192;-91
2021/12/13 03:27:42;;;;;;;5.88;3.60;;;4.90;99.90;;;;;;5096791;28;20192;-90
2021/12/13 03:30:12;;;;;;;6.25;4.22;;;4.90;99.90;;;;;;5097021;28;20203;-89
2021/12/13 03:32:43;;;;;;;5.85;4.43;;;4.90;99.90;;;;;;5095683;28;20217;-88
2021/12/13 03:35:16;;;;;;;4.13;3.72;;;4.90;99.90;;;;;;5096287;28;20204;-91
2021/12/13 03:37:44;;;;;;;5.93;4.57;;;4.90;99.90;;;;;;5096739;28;20192;-90
2021/12/13 03:40:16;;;;;;;4.78;4.18;;;4.90;99.90;;;;;;5097016;28;20187;-91
2021/12/13 03:42:46;;;;;;;5.00;3.67;;;4.90;99.90;;;;;;5096699;28;20212;-90
2021/12/13 03:45:17;;;;;;;5.90;4.85;;;4.90;99.90;;;;;;5097274;28;20191;-91
2021/12/13 03:47:49;;;;;;;5.95;3.80;;;4.90;99.90;;;;;;5097059;28;20196;-90
2021/12/13 03:50:20;;;;;;;5.75;5.15;;;4.90;99.90;;;;;;5097255;28;20224;-91
2021/12/13 03:52:49;;;;;;;6.32;4.82;;;4.90;99.90;;;;;;5096604;28;20238;-91
2021/12/13 03:55:21;;;;;;;5.93;4.57;;;4.90;99.90;;;;;;5096487;28;20201;-90
2021/12/13 03:57:52;;;;;;;5.05;4.22;;;4.90;99.90;;;;;;5095988;28;20200;-90
2021/12/13 04:00:23;;;;;;;4.47;4.07;;;4.80;99.90;;;;;;5096438;28;20200;-92
2021/12/13 04:02:53;;;;;;;7.72;4.63;;;4.80;99.90;;;;;;5096010;28;20200;-92
2021/12/13 04:05:26;;;;;;;8.95;4.78;;;4.80;99.90;;;;;;5096165;28;20239;-91
2021/12/13 04:07:58;;;;;;;7.82;4.30;;;4.80;99.90;;;;;;5093679;28;20192;-90
2021/12/13 04:10:28;;;;;;;7.20;4.10;;;4.80;99.90;;;;;;5080279;28;20697;-90
2021/12/13 04:13:01;;;;;;;8.98;5.28;;;4.80;99.90;;;;;;5074837;28;20594;-89
2021/12/13 04:15:45;;;;;;;5.38;3.95;;;4.80;99.90;;;;;;5077541;28;20204;-89
2021/12/13 04:18:28;;;;;;;5.18;4.30;;;4.80;99.90;;;;;;5077985;28;20200;-89
2021/12/13 04:21:00;;;;;;;7.28;4.57;;;4.80;99.90;;;;;;5077833;28;20207;-91
2021/12/13 04:23:27;;;;;;;4.95;4.43;;;4.80;99.90;;;;;;5078044;28;20621;-89
2021/12/13 04:25:56;;;;;;;4.53;4.13;;;4.80;99.90;;;;;;5077682;28;20204;-91
2021/12/13 04:28:26;;;;;;;8.93;6.50;;;4.80;99.90;;;;;;5078686;28;20204;-89
2021/12/13 04:30:55;;;;;;;5.50;3.88;;;4.80;99.90;;;;;;5078301;28;20566;-89
2021/12/13 04:33:27;;;;;;;4.65;4.25;;;4.80;99.90;;;;;;5078361;28;20285;-89
2021/12/13 04:35:58;;;;;;;7.35;4.20;;;4.80;99.90;;;;;;5073041;28;20208;-88
2021/12/13 04:41:23;;;;;;;4.38;3.97;;;4.80;99.90;;;;;;5057308;28;20189;-90
2021/12/13 04:43:56;;;;;;;5.57;4.10;;;4.80;99.90;;;;;;5060072;28;20221;-88
2021/12/13 04:46:31;;;;;;;4.90;4.38;;;4.80;99.90;;;;;;5059319;28;20205;-90
2021/12/13 04:49:04;;;;;;;5.35;4.20;;;4.80;99.90;;;;;;5059678;28;20645;-90
2021/12/13 04:51:39;;;;;;;5.03;4.55;;;4.90;99.90;;;;;;5059705;28;20672;-90
2021/12/13 04:54:07;;;;;;;4.82;4.40;;;4.90;99.90;;;;;;5058225;28;20232;-89
2021/12/13 04:56:35;;;;;;;5.30;4.00;;;4.90;99.90;;;;;;5060224;28;20234;-89
2021/12/13 04:59:04;;;;;;;5.18;3.88;;;4.90;99.90;;;;;;5071257;28;20208;-93
2021/12/13 05:01:32;;;;;;;4.95;4.07;;;4.90;99.90;;;;;;5075840;28;20212;-90
2021/12/13 05:04:04;;;;;;;5.68;4.05;;;4.90;99.90;;;;;;5073268;28;20235;-90
2021/12/13 05:06:36;;;;;;;5.13;4.32;;;4.80;99.90;;;;;;5076334;28;20670;-91
2021/12/13 05:09:07;;;;;;;3.92;3.50;;;4.80;99.90;;;;;;5077810;28;20211;-90
2021/12/13 05:11:39;;;;;;;6.15;4.20;;;4.80;99.90;;;;;;5077768;28;20208;-88
2021/12/13 05:14:11;;;;;;;5.75;4.50;;;4.80;99.90;;;;;;5077764;28;20224;-90
2021/12/13 05:16:43;;;;;;;4.55;4.05;;;4.80;99.90;;;;;;5076812;28;20204;-89
2021/12/13 05:19:13;;;;;;;5.20;4.20;;;4.80;99.90;;;;;;5076541;28;20214;-90
2021/12/13 05:21:43;;;;;;;6.07;3.50;;;4.80;99.90;;;;;;5076793;28;20295;-89
2021/12/13 05:24:14;;;;;;;4.20;3.80;;;4.80;99.90;;;;;;5077306;28;20600;-90
2021/12/13 05:26:53;;;;;;;7.70;3.90;;;4.80;99.90;;;;;;5088873;28;20204;-93
2021/12/13 05:29:28;;;;;;;4.90;4.40;;;4.90;99.90;;;;;;5101267;22;20231;-66
2021/12/13 05:31:57;;;;;;;6.60;4.60;;;4.90;99.90;;;;;;5106183;28;20219;-67
2021/12/13 05:34:32;;;;;;;8.07;4.80;;;4.90;99.90;;;;;;5092689;28;20236;-67
2021/12/13 05:37:01;;;;;;;5.30;4.03;;;4.90;99.90;;;;;;5092846;28;20199;-67
2021/12/13 05:39:29;;;;;;;6.13;4.20;;;4.90;99.90;;;;;;5093201;28;20611;-67
2021/12/13 05:42:03;;;;;;;5.38;4.10;;;4.90;99.90;;;;;;5091854;28;20220;-67
2021/12/13 05:44:34;;;;;;;5.88;4.10;;;5.00;99.90;;;;;;5093304;28;20211;-67
2021/12/13 05:47:04;;;;;;;4.80;4.38;;;5.00;99.90;;;;;;5092269;28;20207;-67
2021/12/13 05:49:36;;;;;;;4.43;4.03;;;5.10;99.90;;;;;;5093024;28;20200;-68
2021/12/13 05:52:07;;;;;;;4.45;3.80;;;5.10;99.90;;;;;;5091850;28;20266;-68
2021/12/13 05:54:38;;;;;;;6.07;3.70;;;5.10;99.90;;;;;;5092407;28;20219;-67
2021/12/13 05:57:11;;;;;;;5.35;3.80;;;5.10;99.90;;;;;;5092507;28;20717;-67
2021/12/13 05:59:52;;;;;;;4.07;3.45;;;5.10;99.90;;;;;;5092304;28;20203;-67
2021/12/13 06:02:31;;;;;;;4.07;3.67;;;5.10;99.90;;;;;;5092018;28;20231;-67
2021/12/13 06:05:07;;;;;;;4.72;4.10;;;5.10;99.90;;;;;;5091939;28;20231;-67
2021/12/13 06:07:36;;;;;;;6.35;3.30;;;5.10;99.90;;;;;;5092546;28;20200;-66
2021/12/13 06:10:07;;;;;;;4.80;3.90;;;5.10;99.90;;;;;;5092200;28;20210;-65
2021/12/13 06:12:39;;;;;;;4.57;3.95;;;5.10;99.90;;;;;;5091401;28;20717;-67
2021/12/13 06:15:38;;;;;;;4.00;3.60;;;5.10;99.90;;;;;;5092342;28;20203;-67
2021/12/13 06:18:20;;;;;;;4.38;3.97;;;5.10;99.90;;;;;;5090328;28;20207;-67
2021/12/13 06:20:56;;;;;;;4.35;3.88;;;5.10;99.90;;;;;;5092099;28;20200;-66
2021/12/13 06:23:25;;;;;;;4.65;4.00;;;5.10;99.90;;;;;;5092329;28;20616;-67
2021/12/13 06:25:58;;;;;;;5.47;4.30;;;5.10;99.90;;;;;;5091475;28;20249;-67
2021/12/13 06:28:28;;;;;;;6.30;4.43;;;5.10;99.90;;;;;;5092330;28;20241;-67
2021/12/13 06:31:00;;;;;;;6.30;5.25;;;5.10;99.90;;;;;;5090818;28;20212;-67
2021/12/13 06:33:28;;;;;;;6.55;4.93;;;5.20;99.90;;;;;;5091874;28;20242;-67
2021/12/13 06:35:57;;;;;;;9.35;6.28;;;5.10;99.90;;;;;;5091590;28;20199;-67
2021/12/13 06:38:34;;;;;;;7.18;5.53;;;5.20;99.90;;;;;;5090583;28;20211;-67
2021/12/13 06:41:05;;;;;;;6.05;5.43;;;5.20;99.90;;;;;;5089040;28;20207;-66
2021/12/13 06:43:37;;;;;;;7.50;5.72;;;5.20;99.90;;;;;;5091435;28;20235;-66
2021/12/13 06:46:08;;;;;;;8.15;5.85;;;5.20;99.90;;;;;;5091563;28;20203;-67
2021/12/13 06:48:38;;;;;;;10.85;7.50;;;5.20;99.90;;;;;;5091529;28;20214;-67
2021/12/13 06:51:07;;;;;;;13.52;7.65;;;5.20;99.90;;;;;;5090904;28;20204;-66
2021/12/13 06:53:34;;;;;;;8.82;7.13;;;5.20;99.90;;;;;;5091593;28;20224;-67
2021/12/13 06:56:20;;;;;;;12.95;7.97;;;5.20;99.90;;;;;;5090858;28;20697;-66
2021/12/13 06:58:53;;;;;;;9.70;7.70;;;5.30;99.90;;;;;;5091509;28;20199;-67
2021/12/13 07:01:20;;;;;;;10.10;7.25;;;5.20;99.90;;;;;;5088538;28;20203;-66
2021/12/13 07:03:54;;;;;;;10.38;7.25;;;5.30;99.90;;;;;;5091148;28;20196;-68
2021/12/13 07:06:22;;;;;;;10.73;7.63;;;5.30;99.90;;;;;;5091297;28;20204;-67
2021/12/13 07:09:07;;;;;;;11.50;7.15;;;5.30;99.90;;;;;;5089677;28;20196;-66
2021/12/13 07:11:48;;;;;;;10.32;7.10;;;5.30;99.90;;;;;;5088955;28;20265;-67
2021/12/13 07:14:19;;;;;;;7.07;6.30;;;5.30;99.90;;;;;;5087855;28;20635;-65
2021/12/13 07:16:49;;;;;;;12.30;7.57;;;5.30;99.90;;;;;;5091153;28;20206;-64
2021/12/13 07:19:22;;;;;;;9.90;7.53;;;5.30;99.90;;;;;;5090647;28;20677;-67
2021/12/13 07:21:54;;;;;;;11.70;7.20;;;5.30;99.90;;;;;;5090009;28;20306;-67
2021/12/13 07:24:30;;;;;;;8.63;6.60;;;5.30;99.90;;;;;;5091213;28;20614;-67
2021/12/13 07:27:04;;;;;;;12.55;7.07;;;5.40;99.90;;;;;;5090295;28;20203;-67
2021/12/13 07:29:39;;;;;;;9.75;6.70;;;5.40;99.90;;;;;;5090727;28;20212;-67
2021/12/13 07:32:10;;;;;;;8.05;6.30;;;5.40;99.90;;;;;;5089315;28;20717;-67
2021/12/13 07:34:49;;;;;;;9.55;5.97;;;5.40;99.90;;;;;;5091068;28;20697;-67
2021/12/13 07:37:17;;;;;;;17.52;6.80;;;5.40;99.90;;;;;;5090496;28;20199;-67
2021/12/13 07:39:44;;;;;;;9.45;7.32;;;5.40;99.90;;;;;;5090467;28;20557;-66
2021/12/13 07:42:14;;;;;;;10.82;7.47;;;5.40;99.90;;;;;;5089996;28;20271;-67
2021/12/13 07:44:46;;;;;;;9.43;6.82;;;5.40;99.90;;;;;;5089867;28;20570;-66
2021/12/13 07:47:18;;;;;;;11.55;8.57;;;5.40;99.90;;;;;;5090407;28;20196;-67
2021/12/13 07:49:48;;;;;;;9.65;7.45;;;5.40;99.90;;;;;;5090132;28;20196;-65
2021/12/13 07:52:26;;;;;;;9.70;8.00;;;5.40;99.90;;;;;;5089630;28;20231;-67
2021/12/13 07:54:54;;;;;;;9.63;7.75;;;5.50;99.90;;;;;;5090236;28;20226;-67
2021/12/13 07:57:25;;;;;;;10.90;7.60;;;5.50;99.90;;;;;;5089961;28;20195;-67
2021/12/13 07:59:54;;;;;;;9.85;7.03;;;5.50;99.90;;;;;;5090220;28;20219;-66
2021/12/13 08:02:27;;;;;;;11.73;7.40;;;5.60;99.90;;;;;;5089769;28;20219;-66
2021/12/13 08:04:57;;;;;;;13.82;8.43;;;5.60;99.90;;;;;;5091510;22;20601;-70
2021/12/13 08:07:28;;;;;;;11.57;7.25;;;5.60;99.90;;;;;;5070288;28;20593;-69
2021/12/13 08:09:58;;;;;;;9.13;7.47;;;5.60;99.90;;;;;;5069467;28;20201;-70
2021/12/13 08:12:28;;;;;;;8.95;7.13;;;5.60;99.90;;;;;;5069684;28;20216;-70
2021/12/13 08:15:11;;;;;;;10.00;7.60;;;5.70;99.90;;;;;;5069840;28;20273;-69
2021/12/13 08:17:43;;;;;;;7.85;6.72;;;5.70;99.90;;;;;;5069523;28;20223;-70
2021/12/13 08:20:14;;;;;;;10.65;7.25;;;5.70;99.90;;;;;;5066707;28;20200;-70
2021/12/13 08:22:43;;;;;;;9.95;6.68;;;5.70;99.90;;;;;;5076956;28;20269;-68
2021/12/13 08:25:20;;;;;;;9.90;7.28;;;5.70;99.90;;;;;;5068154;28;20196;-68
2021/12/13 08:27:53;;;;;;;7.80;6.60;;;5.70;99.90;;;;;;5068222;28;20204;-66
2021/12/13 08:30:26;;;;;;;13.85;6.43;;;5.80;99.90;;;;;;5068789;28;20204;-69
2021/12/13 08:33:02;;;;;;;14.65;6.82;;;5.80;99.90;;;;;;5068050;28;20278;-67
2021/12/13 08:35:50;;;;;;;8.85;6.82;;;5.90;99.90;;;;;;5067938;28;20227;-68
2021/12/13 08:38:34;;;;;;;14.15;8.25;;;5.90;99.90;;;;;;5068590;28;20686;-69
2021/12/13 08:41:05;;;;;;;11.75;6.32;;;5.90;99.90;;;;;;5067507;28;20698;-70
2021/12/13 08:43:40;;;;;;;8.10;7.18;;;5.90;99.90;;;;;;5067948;28;20229;-70
2021/12/13 08:46:12;;;;;;;9.70;6.43;;;6.00;99.90;;;;;;5068175;28;20203;-69
2021/12/13 08:48:48;;;;;;;8.43;6.18;;;5.90;99.90;;;;;;5067882;28;20204;-70
2021/12/13 08:51:21;;;;;;;8.13;6.70;;;6.00;99.90;;;;;;5067206;28;20299;-71
2021/12/13 08:54:00;;;;;;;8.60;7.00;;;6.00;99.90;;;;;;5067822;28;20216;-71
2021/12/13 08:56:27;;;;;;;10.65;6.75;;;6.10;99.90;;;;;;5067990;28;20201;-71
2021/12/13 08:59:01;;;;;;;9.10;5.80;;;6.00;99.90;;;;;;5067350;28;20628;-73
2021/12/13 09:01:40;;;;;;;12.40;7.45;;;6.00;99.90;;;;;;5069206;28;20205;-73
2021/12/13 09:04:09;;;;;;;7.82;6.25;;;5.90;99.90;;;;;;5071213;28;20219;-72
2021/12/13 09:06:37;;;;;;;10.77;5.80;;;6.00;99.90;;;;;;5071023;28;20254;-71
2021/12/13 09:09:12;;;;;;;11.63;6.30;;;6.00;99.90;;;;;;5071600;28;20669;-71
2021/12/13 09:11:43;;;;;;;7.88;5.55;;;6.00;99.90;;;;;;5070650;28;20315;-73
2021/12/13 09:14:16;;;;;;;8.05;5.75;;;6.10;99.90;;;;;;5071718;28;20220;-73
2021/12/13 09:17:06;;;;;;;7.93;5.00;;;6.10;99.90;;;;;;5071881;28;20204;-71
2021/12/13 09:19:37;;;;;;;8.77;5.93;;;6.10;99.90;;;;;;5070796;28;20204;-71
2021/12/13 09:22:10;;;;;;;6.80;5.60;;;6.20;99.90;;;;;;5070915;28;20219;-72
2021/12/13 09:24:41;;;;;;;7.43;5.88;;;6.30;99.90;;;;;;5071182;28;20559;-74
2021/12/13 09:27:25;;;;;;;8.98;5.45;;;6.40;99.90;;;;;;5070681;28;20204;-71
2021/12/13 09:30:04;;;;;;;9.50;5.43;;;6.50;99.90;;;;;;5071612;28;20208;-73
2021/12/13 09:32:38;;;;;;;9.85;5.97;;;6.50;99.90;;;;;;5070615;28;20590;-71
2021/12/13 09:35:40;;;;;;;7.18;5.45;;;6.60;99.90;;;;;;5083330;28;20223;-71
2021/12/13 09:38:38;;;;;;;8.43;5.70;;;6.70;99.90;;;;;;5028882;28;20198;-72
2021/12/13 09:41:27;;;;;;;8.10;5.43;;;6.80;99.90;;;;;;5090926;28;20204;-72
2021/12/13 09:43:58;;;;;;;6.55;5.40;;;7.00;99.90;;;;;;5091770;28;20235;-72
2021/12/13 09:46:33;;;;;;;8.88;5.80;;;6.90;99.90;;;;;;5092354;28;20200;-71
2021/12/13 09:49:05;;;;;;;8.25;5.65;;;7.00;99.90;;;;;;5091359;28;20199;-71
2021/12/13 09:51:37;;;;;;;7.10;5.28;;;7.00;99.90;;;;;;5090920;28;20234;-71
2021/12/13 09:54:07;;;;;;;8.95;5.05;;;7.10;99.90;;;;;;5091952;28;20220;-71
2021/12/13 09:56:39;;;;;;;6.07;4.90;;;7.20;99.90;;;;;;5091284;28;20214;-72
2021/12/13 09:59:15;;;;;;;5.68;4.10;;;7.30;99.90;;;;;;5091806;28;20200;-71
2021/12/13 10:01:42;;;;;;;8.48;4.97;;;7.40;99.90;;;;;;5091449;28;20230;-71
2021/12/13 10:04:15;;;;;;;6.30;4.00;;;7.50;99.90;;;;;;5090624;28;20834;-73
2021/12/13 10:06:44;;;;;;;5.38;4.60;;;7.70;99.90;;;;;;5091899;28;20222;-72
2021/12/13 10:09:16;;;;;;;5.47;3.92;;;7.80;99.90;;;;;;5089612;28;20211;-72
2021/12/13 10:11:49;;;;;;;6.05;4.82;;;7.90;99.90;;;;;;5089475;28;20706;-71
2021/12/13 10:14:19;;;;;;;4.25;3.65;;;7.90;99.90;;;;;;5091419;28;20228;-71
2021/12/13 10:16:51;;;;;;;4.63;3.83;;;7.90;99.90;;;;;;5091163;28;20228;-72
2021/12/13 10:19:24;;;;;;;4.85;4.18;;;8.00;99.90;;;;;;5091266;28;20239;-74
2021/12/13 10:21:51;;;;;;;8.73;4.90;;;8.10;99.90;;;;;;5090915;28;20592;-72
2021/12/13 10:24:23;;;;;;;5.28;4.30;;;8.20;99.90;;;;;;5091261;28;20204;-73
2021/12/13 10:26:52;;;;;;;7.32;5.05;;;8.30;99.90;;;;;;5091296;28;20203;-72
2021/12/13 10:29:20;;;;;;;7.75;4.35;;;8.30;99.90;;;;;;5090605;28;20723;-72
2021/12/13 10:31:50;;;;;;;4.70;4.20;;;8.30;99.90;;;;;;5090896;28;20243;-72
2021/12/13 10:34:22;;;;;;;4.97;4.20;;;8.30;99.90;;;;;;5090618;28;20426;-72
2021/12/13 10:36:52;;;;;;;5.50;4.75;;;8.30;99.90;;;;;;5091007;28;20570;-71
2021/12/13 10:39:24;;;;;;;5.05;4.15;;;8.30;99.90;;;;;;5091162;28;20202;-72
2021/12/13 10:41:54;;;;;;;4.80;4.30;;;8.30;99.90;;;;;;5089972;28;20231;-71
2021/12/13 10:44:27;;;;;;;4.32;3.85;;;8.20;99.90;;;;;;5091079;28;20196;-72
2021/12/13 10:46:57;;;;;;;4.30;3.88;;;8.30;99.90;;;;;;5090769;28;20249;-71
2021/12/13 10:49:28;;;;;;;4.10;3.58;;;8.30;99.90;;;;;;5089593;28;20729;-72
2021/12/13 10:51:57;;;;;;;4.00;3.40;;;8.30;99.90;;;;;;5071061;28;20231;-71
2021/12/13 10:54:30;;;;;;;3.90;3.38;;;8.30;99.90;;;;;;5069960;28;20256;-72
2021/12/13 10:57:00;;;;;;;6.25;4.03;;;8.30;99.90;;;;;;5070306;28;20204;-73
2021/12/13 10:59:29;;;;;;;4.25;3.15;;;8.30;99.90;;;;;;5070725;28;20197;-72
2021/12/13 11:02:01;;;;;;;4.80;3.35;;;8.20;99.90;;;;;;5067029;28;20228;-71
2021/12/13 11:04:33;;;;;;;4.65;3.30;;;8.30;99.90;;;;;;5062343;28;20211;-71
2021/12/13 11:07:01;;;;;;;5.25;4.00;;;8.40;99.90;;;;;;5068003;28;20193;-71
2021/12/13 11:09:28;;;;;;;4.70;3.50;;;8.50;99.90;;;;;;5070473;28;20204;-71
2021/12/13 11:11:59;;;;;;;3.83;3.35;;;8.40;99.90;;;;;;5069320;28;20589;-72
2021/12/13 11:14:29;;;;;;;2.92;2.40;;;8.50;99.90;;;;;;5070114;28;20220;-70
2021/12/13 11:16:57;;;;;;;2.75;2.55;;;8.40;99.90;;;;;;5070338;28;20207;-72
2021/12/13 11:19:29;;;;;;;3.08;2.25;;;8.30;99.90;;;;;;5069757;28;20200;-71
2021/12/13 11:22:03;;;;;;;2.33;2.10;;;8.40;99.90;;;;;;5069190;28;20220;-71
2021/12/13 11:24:33;;;;;;;2.70;2.50;;;8.50;99.90;;;;;;5070141;28;20193;-70
2021/12/13 11:27:08;;;;;;;2.55;2.35;;;8.70;99.90;;;;;;5068915;28;20205;-70
2021/12/13 11:29:35;;;;;;;2.35;2.15;;;9.10;99.90;;;;;;5070156;28;20552;-70
2021/12/13 11:32:44;;;;;;;2.53;2.10;;;9.50;99.90;;;;;;5068762;28;20235;-70
2021/12/13 11:36:02;;;;;;;2.50;2.10;;;9.90;99.90;;;;;;5070490;28;20224;-71
2021/12/13 11:39:01;;;;;;;3.13;2.25;;;10.10;99.90;;;;;;5084477;28;20207;-70
2021/12/13 11:41:59;;;;;;;2.30;2.10;;;10.70;99.90;;;;;;5089184;28;20196;-71
2021/12/13 11:44:54;;;;;;;3.15;2.63;;;11.00;99.90;;;;;;5089743;28;20207;-71
2021/12/13 11:48:02;;;;;;;2.30;1.95;;;11.00;99.90;;;;;;5078104;28;20192;-71
2021/12/13 11:50:59;;;;;;;3.10;2.80;;;10.70;99.90;;;;;;5088576;28;20214;-70
2021/12/13 11:53:52;;;;;;;2.33;2.13;;;10.60;99.90;;;;;;5089593;28;20212;-71
2021/12/13 11:56:51;;;;;;;3.20;2.90;;;10.60;99.90;;;;;;5089230;28;20222;-71
2021/12/13 11:59:33;;;;;;;3.30;2.60;;;10.60;99.90;;;;;;5088364;28;20213;-71
2021/12/13 12:02:10;;;;;;;3.35;2.35;;;10.50;99.90;;;;;;5087762;28;20215;-71
2021/12/13 12:05:24;;;;;;;5.22;4.10;;;10.40;99.90;;;;;;5088859;28;20215;-71
2021/12/13 12:08:25;;;;;;;3.72;3.42;;;10.40;99.90;;;;;;5088681;28;20203;-72
2021/12/13 12:11:23;;;;;;;2.50;2.30;;;10.40;99.90;;;;;;5088139;28;20737;-74
2021/12/13 12:14:03;;;;;;;2.72;2.20;;;10.10;99.90;;;;;;5089522;28;20210;-71
2021/12/13 12:16:31;;;;;;;2.40;2.20;;;10.00;99.90;;;;;;5088740;28;20219;-72
2021/12/13 12:18:58;;;;;;;4.10;2.65;;;9.90;99.90;;;;;;5088227;28;20291;-71
2021/12/13 12:21:34;;;;;;;2.40;2.20;;;9.90;99.90;;;;;;5088708;28;20207;-71
2021/12/13 12:24:03;;;;;;;3.78;2.47;;;9.90;99.90;;;;;;5088787;28;20200;-71
2021/12/13 12:26:32;;;;;;;2.42;2.20;;;9.80;99.90;;;;;;5088905;28;20200;-71
2021/12/13 12:29:03;;;;;;;3.30;2.55;;;9.80;99.90;;;;;;5087740;28;20211;-72
2021/12/13 12:31:32;;;;;;;3.08;2.83;;;9.70;99.90;;;;;;5088810;28;20203;-71
2021/12/13 12:34:00;;;;;;;3.33;2.50;;;9.60;99.90;;;;;;5089232;28;20204;-71
2021/12/13 12:36:48;;;;;;;3.20;2.03;;;9.60;99.90;;;;;;5092271;28;20219;-70
2021/12/13 12:40:02;;;;;;;3.38;2.55;;;9.50;99.90;;;;;;5092620;28;20900;-73
2021/12/13 12:42:34;;;;;;;2.90;2.50;;;9.40;99.90;;;;;;5092575;28;20227;-71
2021/12/13 12:45:08;;;;;;;3.25;2.60;;;9.30;99.90;;;;;;5092990;28;20202;-72
2021/12/13 12:48:12;;;;;;;2.60;2.40;;;9.30;99.90;;;;;;5092293;28;20203;-71
2021/12/13 12:50:49;;;;;;;3.40;3.10;;;9.20;99.90;;;;;;5093164;28;20195;-72
2021/12/13 12:53:22;;;;;;;3.63;3.33;;;9.20;99.90;;;;;;5091892;28;20306;-71
2021/12/13 12:55:57;;;;;;;3.53;3.20;;;9.10;99.90;;;;;;5092796;28;20227;-72
2021/12/13 12:58:28;;;;;;;3.60;3.30;;;9.10;99.90;;;;;;5092469;28;20203;-73
2021/12/13 13:00:58;;;;;;;3.72;3.25;;;9.10;99.90;;;;;;5084635;28;20204;-72
2021/12/13 13:03:28;;;;;;;4.10;3.72;;;9.10;99.90;;;;;;5088240;28;20232;-71
2021/12/13 13:06:04;;;;;;;4.13;3.75;;;9.00;99.90;;;;;;5092345;28;20192;-71
2021/12/13 13:08:34;;;;;;;6.40;5.13;;;9.10;99.90;;;;;;5092701;28;20260;-70
2021/12/13 13:13:56;;;;;;;5.05;4.47;;;9.00;99.90;;;;;;5072030;28;20237;-70
2021/12/13 13:16:30;;;;;;;7.13;5.57;;;9.00;99.90;;;;;;5077611;28;20330;-72
2021/12/13 13:18:56;;;;;;;7.00;5.63;;;8.90;99.90;;;;;;5071057;28;20208;-71
2021/12/13 13:21:24;;;;;;;7.70;6.25;;;8.90;99.90;;;;;;5071669;28;20204;-72
2021/12/13 13:23:56;;;;;;;7.47;6.85;;;9.00;99.90;;;;;;5071739;28;20196;-71
2021/12/13 13:26:27;;;;;;;6.93;6.22;;;8.90;99.90;;;;;;5072324;28;20208;-70
2021/12/13 13:28:58;;;;;;;8.52;6.38;;;8.80;99.90;;;;;;5071563;28;20200;-72
2021/12/13 13:31:31;;;;;;;8.98;6.70;;;8.80;99.90;;;;;;5073860;28;20585;-72
2021/12/13 13:34:03;;;;;;;8.75;7.47;;;8.70;99.90;;;;;;5092471;28;20257;-70
2021/12/13 13:36:37;;;;;;;7.18;6.47;;;8.70;99.90;;;;;;5091588;28;20230;-71
2021/12/13 13:39:17;;;;;;;10.10;6.70;;;8.60;99.90;;;;;;5091129;28;20298;-73
2021/12/13 13:41:47;;;;;;;10.18;7.22;;;8.60;99.90;;;;;;5090595;28;20215;-72
2021/12/13 13:44:19;;;;;;;12.75;9.27;;;8.60;99.90;;;;;;5091394;28;20199;-71